sensor_id;sensor_type;location;lat;lon;timestamp;pressure;altitude;pressure_sealevel;temperature;humidity
44001;BME280;29660;42.892;24.710;2022-09-03T00:05:09;96996.91;;;17.06;100.00
44001;BME280;29660;42.892;24.710;2022-09-03T00:10:21;96885.69;;;16.34;100.00
44001;BME280;29660;42.892;24.710;2022-09-03T00:15:26;96943.56;;;16.78;100.00
44001;BME280;29660;42.892;24.710;2022-09-03T00:20:33;96786.06;;;15.62;100.00
44001;BME280;29660;42.892;24.710;2022-09-03T00:25:43;96990.34;;;16.95;100.00
44001;BME280;29660;42.892;24.710;2022-09-03T00:30:49;96708.84;;;15.21;100.00
44001;BME280;29660;42.892;24.710;2022-09-03T00:36:03;96740.47;;;15.45;100.00
44001;BME280;29660;42.892;24.710;2022-09-03T00:46:59;96843.13;;;16.06;100.00
44001;BME280;29660;42.892;24.710;2022-09-03T01:13:59;96752.75;;;15.25;100.00
44001;BME280;29660;42.892;24.710;2022-09-03T01:19:08;96786.19;;;15.36;100.00
44001;BME280;29660;42.892;24.710;2022-09-03T01:46:07;96957.25;;;16.35;100.00
44001;BME280;29660;42.892;24.710;2022-09-03T01:51:18;97005.38;;;16.66;100.00
44001;BME280;29660;42.892;24.710;2022-09-03T02:01:44;96944.72;;;16.39;100.00
44001;BME280;29660;42.892;24.710;2022-09-03T02:06:49;96981.03;;;16.54;100.00
44001;BME280;29660;42.892;24.710;2022-09-03T02:12:02;96802.47;;;15.31;100.00
44001;BME280;29660;42.892;24.710;2022-09-03T02:17:07;96776.97;;;15.08;100.00
44001;BME280;29660;42.892;24.710;2022-09-03T02:22:11;96773.81;;;15.06;100.00
44001;BME280;29660;42.892;24.710;2022-09-03T02:27:32;96772.06;;;15.10;100.00
44001;BME280;29660;42.892;24.710;2022-09-03T02:32:34;96784.50;;;15.23;100.00
44001;BME280;29660;42.892;24.710;2022-09-03T02:37:37;96968.81;;;16.35;100.00
44001;BME280;29660;42.892;24.710;2022-09-03T02:42:39;96775.84;;;15.17;100.00
44001;BME280;29660;42.892;24.710;2022-09-03T02:47:43;96754.84;;;15.11;100.00
44001;BME280;29660;42.892;24.710;2022-09-03T02:52:48;96996.28;;;16.50;100.00
44001;BME280;29660;42.892;24.710;2022-09-03T02:57:50;96841.41;;;15.72;100.00
44001;BME280;29660;42.892;24.710;2022-09-03T03:02:55;97023.03;;;16.84;100.00
44001;BME280;29660;42.892;24.710;2022-09-03T03:07:57;96961.81;;;16.34;100.00
44001;BME280;29660;42.892;24.710;2022-09-03T03:13:00;96885.47;;;15.80;100.00
44001;BME280;29660;42.892;24.710;2022-09-03T03:18:02;96955.38;;;16.27;100.00
44001;BME280;29660;42.892;24.710;2022-09-03T03:23:04;97013.28;;;16.71;100.00
44001;BME280;29660;42.892;24.710;2022-09-03T03:28:07;97010.88;;;16.69;100.00
44001;BME280;29660;42.892;24.710;2022-09-03T03:33:09;96914.81;;;16.02;100.00
44001;BME280;29660;42.892;24.710;2022-09-03T03:38:11;96771.97;;;14.97;100.00
44001;BME280;29660;42.892;24.710;2022-09-03T03:43:13;97035.97;;;16.61;100.00
44001;BME280;29660;42.892;24.710;2022-09-03T03:48:15;96788.34;;;15.05;100.00
44001;BME280;29660;42.892;24.710;2022-09-03T03:53:17;96901.63;;;15.80;100.00
44001;BME280;29660;42.892;24.710;2022-09-03T03:58:20;96828.91;;;15.29;100.00
44001;BME280;29660;42.892;24.710;2022-09-03T04:03:22;97013.41;;;16.45;100.00
44001;BME280;29660;42.892;24.710;2022-09-03T04:08:25;96834.56;;;15.28;100.00
44001;BME280;29660;42.892;24.710;2022-09-03T04:13:35;96999.09;;;16.15;100.00
44001;BME280;29660;42.892;24.710;2022-09-03T04:18:38;96820.41;;;15.01;100.00
44001;BME280;29660;42.892;24.710;2022-09-03T04:23:42;96799.81;;;14.67;100.00
44001;BME280;29660;42.892;24.710;2022-09-03T04:28:44;96959.38;;;15.74;100.00
44001;BME280;29660;42.892;24.710;2022-09-03T04:33:48;97003.00;;;15.97;100.00
44001;BME280;29660;42.892;24.710;2022-09-03T04:38:51;97012.94;;;16.05;100.00
44001;BME280;29660;42.892;24.710;2022-09-03T04:43:58;96996.38;;;15.85;100.00
44001;BME280;29660;42.892;24.710;2022-09-03T04:49:01;96742.03;;;14.09;100.00
44001;BME280;29660;42.892;24.710;2022-09-03T04:54:03;97062.94;;;16.06;100.00
44001;BME280;29660;42.892;24.710;2022-09-03T04:59:07;96818.09;;;14.47;100.00
44001;BME280;29660;42.892;24.710;2022-09-03T05:04:10;97030.41;;;15.81;100.00
44001;BME280;29660;42.892;24.710;2022-09-03T05:09:12;97077.94;;;16.15;100.00
44001;BME280;29660;42.892;24.710;2022-09-03T05:14:14;97044.91;;;15.98;100.00
44001;BME280;29660;42.892;24.710;2022-09-03T05:19:16;97005.56;;;15.84;100.00
44001;BME280;29660;42.892;24.710;2022-09-03T05:24:18;96971.72;;;15.75;100.00
44001;BME280;29660;42.892;24.710;2022-09-03T05:29:20;97058.22;;;16.41;100.00
44001;BME280;29660;42.892;24.710;2022-09-03T05:34:22;97018.09;;;16.18;100.00
44001;BME280;29660;42.892;24.710;2022-09-03T05:39:24;97074.44;;;16.62;100.00
44001;BME280;29660;42.892;24.710;2022-09-03T05:44:26;97100.44;;;16.58;100.00
44001;BME280;29660;42.892;24.710;2022-09-03T05:49:30;96851.22;;;15.21;100.00
44001;BME280;29660;42.892;24.710;2022-09-03T05:54:32;96812.25;;;14.97;100.00
44001;BME280;29660;42.892;24.710;2022-09-03T05:59:35;96936.72;;;15.83;100.00
44001;BME280;29660;42.892;24.710;2022-09-03T06:04:37;96884.75;;;15.70;100.00
44001;BME280;29660;42.892;24.710;2022-09-03T06:09:39;96867.63;;;15.75;100.00
44001;BME280;29660;42.892;24.710;2022-09-03T06:14:41;96924.13;;;16.13;100.00
44001;BME280;29660;42.892;24.710;2022-09-03T06:19:43;96868.94;;;15.69;100.00
44001;BME280;29660;42.892;24.710;2022-09-03T06:24:45;97138.66;;;17.49;100.00
44001;BME280;29660;42.892;24.710;2022-09-03T06:29:47;97153.81;;;17.41;100.00
44001;BME280;29660;42.892;24.710;2022-09-03T06:34:49;96913.09;;;15.98;100.00
44001;BME280;29660;42.892;24.710;2022-09-03T06:39:51;96878.03;;;15.38;100.00
44001;BME280;29660;42.892;24.710;2022-09-03T06:44:54;96901.72;;;15.36;100.00
44001;BME280;29660;42.892;24.710;2022-09-03T06:49:58;96887.84;;;15.34;100.00
44001;BME280;29660;42.892;24.710;2022-09-03T06:55:01;97027.88;;;16.32;100.00
44001;BME280;29660;42.892;24.710;2022-09-03T07:00:04;97124.25;;;16.94;100.00
44001;BME280;29660;42.892;24.710;2022-09-03T07:05:07;97143.16;;;17.15;100.00
44001;BME280;29660;42.892;24.710;2022-09-03T07:10:09;97050.22;;;16.62;100.00
44001;BME280;29660;42.892;24.710;2022-09-03T07:15:14;96916.28;;;15.91;100.00
44001;BME280;29660;42.892;24.710;2022-09-03T07:20:16;97169.28;;;17.53;100.00
44001;BME280;29660;42.892;24.710;2022-09-03T07:25:18;97069.91;;;16.92;100.00
44001;BME280;29660;42.892;24.710;2022-09-03T07:30:20;97087.81;;;17.17;100.00
44001;BME280;29660;42.892;24.710;2022-09-03T07:35:22;97157.38;;;17.75;100.00
44001;BME280;29660;42.892;24.710;2022-09-03T07:40:26;97117.50;;;17.59;100.00
44001;BME280;29660;42.892;24.710;2022-09-03T07:45:29;97129.59;;;17.74;100.00
44001;BME280;29660;42.892;24.710;2022-09-03T07:50:32;97187.00;;;18.04;100.00
44001;BME280;29660;42.892;24.710;2022-09-03T07:55:39;97182.66;;;18.12;100.00
44001;BME280;29660;42.892;24.710;2022-09-03T08:00:41;97173.16;;;18.06;100.00
44001;BME280;29660;42.892;24.710;2022-09-03T08:05:44;96915.28;;;16.34;100.00
44001;BME280;29660;42.892;24.710;2022-09-03T08:10:46;96992.81;;;16.70;100.00
44001;BME280;29660;42.892;24.710;2022-09-03T08:15:53;97143.22;;;17.57;100.00
44001;BME280;29660;42.892;24.710;2022-09-03T08:20:58;97180.78;;;17.62;100.00
44001;BME280;29660;42.892;24.710;2022-09-03T08:26:00;97129.19;;;17.42;100.00
44001;BME280;29660;42.892;24.710;2022-09-03T08:31:16;97150.84;;;17.55;100.00
44001;BME280;29660;42.892;24.710;2022-09-03T08:36:20;97056.47;;;16.83;100.00
44001;BME280;29660;42.892;24.710;2022-09-03T08:52:19;97195.75;;;17.80;100.00
44001;BME280;29660;42.892;24.710;2022-09-03T08:57:24;96951.53;;;16.36;100.00
44001;BME280;29660;42.892;24.710;2022-09-03T09:08:19;97204.25;;;18.12;100.00
44001;BME280;29660;42.892;24.710;2022-09-03T09:13:42;97177.06;;;17.96;98.55
44001;BME280;29660;42.892;24.710;2022-09-03T09:24:01;97200.56;;;18.50;98.55
44001;BME280;29660;42.892;24.710;2022-09-03T09:29:08;96972.72;;;17.18;99.27
44001;BME280;29660;42.892;24.710;2022-09-03T09:34:11;97182.63;;;18.78;96.93
44001;BME280;29660;42.892;24.710;2022-09-03T09:39:14;96949.50;;;17.59;93.33
44001;BME280;29660;42.892;24.710;2022-09-03T09:44:20;97021.75;;;18.32;93.80
44001;BME280;29660;42.892;24.710;2022-09-03T09:54:49;97160.34;;;19.55;92.86
44001;BME280;29660;42.892;24.710;2022-09-03T10:05:13;97196.19;;;20.17;91.74
44001;BME280;29660;42.892;24.710;2022-09-03T10:10:18;97009.69;;;19.03;90.21
44001;BME280;29660;42.892;24.710;2022-09-03T10:15:34;97137.69;;;20.00;89.85
44001;BME280;29660;42.892;24.710;2022-09-03T10:20:40;97206.09;;;20.53;90.91
44001;BME280;29660;42.892;24.710;2022-09-03T10:36:19;96999.81;;;18.82;89.39
44001;BME280;29660;42.892;24.710;2022-09-03T10:52:09;97225.53;;;20.43;89.17
44001;BME280;29660;42.892;24.710;2022-09-03T10:57:38;97227.81;;;20.41;90.10
44001;BME280;29660;42.892;24.710;2022-09-03T11:02:56;97229.47;;;20.17;88.07
44001;BME280;29660;42.892;24.710;2022-09-03T11:14:06;96966.25;;;18.47;88.85
44001;BME280;29660;42.892;24.710;2022-09-03T11:19:12;97050.25;;;18.91;90.01
44001;BME280;29660;42.892;24.710;2022-09-03T11:24:21;97054.06;;;18.89;88.81
44001;BME280;29660;42.892;24.710;2022-09-03T11:29:32;97051.16;;;18.95;88.91
44001;BME280;29660;42.892;24.710;2022-09-03T11:34:47;97214.31;;;19.88;88.52
44001;BME280;29660;42.892;24.710;2022-09-03T11:50:28;97220.69;;;20.08;89.65
44001;BME280;29660;42.892;24.710;2022-09-03T11:55:32;97097.47;;;19.46;88.81
44001;BME280;29660;42.892;24.710;2022-09-03T12:00:47;97232.19;;;20.45;88.59
44001;BME280;29660;42.892;24.710;2022-09-03T12:16:53;97256.94;;;20.31;89.32
44001;BME280;29660;42.892;24.710;2022-09-03T12:21:58;97212.91;;;20.06;91.08
44001;BME280;29660;42.892;24.710;2022-09-03T12:27:04;97240.50;;;20.24;91.04
44001;BME280;29660;42.892;24.710;2022-09-03T12:32:10;97036.16;;;18.85;90.91
44001;BME280;29660;42.892;24.710;2022-09-03T12:37:23;97213.31;;;19.93;89.76
44001;BME280;29660;42.892;24.710;2022-09-03T12:42:46;96989.22;;;18.28;91.88
44001;BME280;29660;42.892;24.710;2022-09-03T12:47:49;97017.03;;;18.41;90.97
44001;BME280;29660;42.892;24.710;2022-09-03T12:52:55;97218.97;;;19.51;92.30
44001;BME280;29660;42.892;24.710;2022-09-03T13:03:55;97250.97;;;19.61;90.02
44001;BME280;29660;42.892;24.710;2022-09-03T13:09:02;96999.53;;;18.02;89.60
44001;BME280;29660;42.892;24.710;2022-09-03T13:14:11;97041.84;;;18.22;91.53
44001;BME280;29660;42.892;24.710;2022-09-03T13:30:07;97238.25;;;19.74;91.78
44001;BME280;29660;42.892;24.710;2022-09-03T13:35:22;97229.34;;;19.61;94.86
44001;BME280;29660;42.892;24.710;2022-09-03T13:40:36;97019.13;;;18.23;96.98
44001;BME280;29660;42.892;24.710;2022-09-03T13:45:45;97062.38;;;18.48;97.92
44001;BME280;29660;42.892;24.710;2022-09-03T13:56:56;97252.56;;;19.74;98.20
44001;BME280;29660;42.892;24.710;2022-09-03T14:02:39;97230.34;;;19.69;92.85
44001;BME280;29660;42.892;24.710;2022-09-03T14:23:35;97015.06;;;18.05;98.79
44001;BME280;29660;42.892;24.710;2022-09-03T14:28:58;97014.56;;;17.90;99.10
44001;BME280;29660;42.892;24.710;2022-09-03T14:34:17;97257.72;;;19.30;100.00
44001;BME280;29660;42.892;24.710;2022-09-03T14:39:32;97252.75;;;19.32;100.00
44001;BME280;29660;42.892;24.710;2022-09-03T14:55:23;97261.75;;;19.12;100.00
44001;BME280;29660;42.892;24.710;2022-09-03T15:11:16;97272.56;;;19.12;100.00
44001;BME280;29660;42.892;24.710;2022-09-03T15:22:07;97276.31;;;19.20;100.00
44001;BME280;29660;42.892;24.710;2022-09-03T15:37:47;97036.31;;;17.52;100.00
44001;BME280;29660;42.892;24.710;2022-09-03T15:43:09;97040.16;;;17.51;100.00
44001;BME280;29660;42.892;24.710;2022-09-03T15:48:27;96863.50;;;16.37;100.00
44001;BME280;29660;42.892;24.710;2022-09-03T15:58:54;97282.78;;;18.94;100.00
44001;BME280;29660;42.892;24.710;2022-09-03T16:04:09;97020.75;;;17.16;100.00
44001;BME280;29660;42.892;24.710;2022-09-03T16:09:42;97000.84;;;16.87;100.00
44001;BME280;29660;42.892;24.710;2022-09-03T16:15:22;97062.09;;;17.20;100.00
44001;BME280;29660;42.892;24.710;2022-09-03T16:20:37;97187.66;;;18.01;100.00
44001;BME280;29660;42.892;24.710;2022-09-03T16:25:47;97304.28;;;18.70;100.00
44001;BME280;29660;42.892;24.710;2022-09-03T16:36:17;97286.97;;;18.50;100.00
44001;BME280;29660;42.892;24.710;2022-09-03T16:52:19;97286.66;;;18.30;100.00
44001;BME280;29660;42.892;24.710;2022-09-03T17:24:35;97340.38;;;18.23;100.00
44001;BME280;29660;42.892;24.710;2022-09-03T17:56:23;97128.28;;;16.62;100.00
44001;BME280;29660;42.892;24.710;2022-09-03T18:01:27;97114.31;;;16.39;100.00
44001;BME280;29660;42.892;24.710;2022-09-03T18:11:40;97371.81;;;17.98;100.00
44001;BME280;29660;42.892;24.710;2022-09-03T18:16:53;97207.00;;;16.85;100.00
44001;BME280;29660;42.892;24.710;2022-09-03T18:22:02;97380.25;;;17.97;100.00
44001;BME280;29660;42.892;24.710;2022-09-03T18:27:44;97390.75;;;17.89;100.00
44001;BME280;29660;42.892;24.710;2022-09-03T18:33:06;97364.81;;;17.59;100.00
44001;BME280;29660;42.892;24.710;2022-09-03T18:38:29;97342.94;;;17.52;100.00
44001;BME280;29660;42.892;24.710;2022-09-03T19:01:39;97393.50;;;17.81;100.00
44001;BME280;29660;42.892;24.710;2022-09-03T19:07:06;97355.34;;;17.44;100.00
44001;BME280;29660;42.892;24.710;2022-09-03T19:23:27;97285.72;;;16.99;100.00
44001;BME280;29660;42.892;24.710;2022-09-03T19:28:51;97360.88;;;17.48;100.00
44001;BME280;29660;42.892;24.710;2022-09-03T19:34:29;97395.56;;;17.66;100.00
44001;BME280;29660;42.892;24.710;2022-09-03T19:45:21;97429.84;;;17.66;100.00
44001;BME280;29660;42.892;24.710;2022-09-03T19:50:59;97395.13;;;17.64;100.00
44001;BME280;29660;42.892;24.710;2022-09-03T19:56:26;97410.31;;;17.69;100.00
44001;BME280;29660;42.892;24.710;2022-09-03T20:01:47;97216.88;;;16.46;100.00
44001;BME280;29660;42.892;24.710;2022-09-03T20:07:09;97237.75;;;16.58;100.00
44001;BME280;29660;42.892;24.710;2022-09-03T20:12:33;97153.75;;;16.09;100.00
44001;BME280;29660;42.892;24.710;2022-09-03T20:17:41;97398.59;;;17.65;100.00
44001;BME280;29660;42.892;24.710;2022-09-03T20:22:55;97401.94;;;17.62;100.00
44001;BME280;29660;42.892;24.710;2022-09-03T20:33:10;97239.22;;;16.38;100.00
44001;BME280;29660;42.892;24.710;2022-09-03T20:54:23;97421.38;;;17.29;100.00
44001;BME280;29660;42.892;24.710;2022-09-03T21:10:26;97157.50;;;15.30;100.00
44001;BME280;29660;42.892;24.710;2022-09-03T21:16:08;97409.03;;;16.76;100.00
44001;BME280;29660;42.892;24.710;2022-09-03T21:26:39;97246.81;;;15.35;100.00
44001;BME280;29660;42.892;24.710;2022-09-03T21:36:54;97279.97;;;15.31;100.00
44001;BME280;29660;42.892;24.710;2022-09-03T21:47:15;97384.41;;;15.77;100.00
44001;BME280;29660;42.892;24.710;2022-09-03T21:52:38;97357.31;;;15.65;100.00
44001;BME280;29660;42.892;24.710;2022-09-03T22:03:15;97358.00;;;15.48;100.00
44001;BME280;29660;42.892;24.710;2022-09-03T22:14:11;97430.69;;;15.65;100.00
44001;BME280;29660;42.892;24.710;2022-09-03T22:19:14;97376.97;;;15.20;100.00
44001;BME280;29660;42.892;24.710;2022-09-03T22:24:20;97422.84;;;15.24;100.00
44001;BME280;29660;42.892;24.710;2022-09-03T22:40:22;97409.09;;;15.03;100.00
44001;BME280;29660;42.892;24.710;2022-09-03T22:45:45;97413.81;;;14.97;100.00
44001;BME280;29660;42.892;24.710;2022-09-03T22:50:55;97409.16;;;14.89;100.00
44001;BME280;29660;42.892;24.710;2022-09-03T22:56:04;97158.09;;;13.16;100.00
44001;BME280;29660;42.892;24.710;2022-09-03T23:01:15;97384.59;;;14.60;100.00
44001;BME280;29660;42.892;24.710;2022-09-03T23:06:40;97376.25;;;14.47;100.00
44001;BME280;29660;42.892;24.710;2022-09-03T23:11:52;97423.50;;;14.85;100.00
44001;BME280;29660;42.892;24.710;2022-09-03T23:17:07;97329.81;;;14.11;100.00
44001;BME280;29660;42.892;24.710;2022-09-03T23:22:21;97186.69;;;13.20;100.00
44001;BME280;29660;42.892;24.710;2022-09-03T23:27:33;97170.03;;;13.10;100.00
44001;BME280;29660;42.892;24.710;2022-09-03T23:32:36;97411.81;;;14.67;100.00
44001;BME280;29660;42.892;24.710;2022-09-03T23:58:42;97441.94;;;14.64;100.00
